sensor_id;sensor_type;location;lat;lon;timestamp;pressure;altitude;pressure_sealevel;temperature;humidity
13367;BME280;6752;52.612;13.630;2023-10-09T00:02:48;101609.61;;;10.22;100.00
13367;BME280;6752;52.612;13.630;2023-10-09T00:07:50;101585.49;;;10.00;100.00
13367;BME280;6752;52.612;13.630;2023-10-09T00:12:53;101592.38;;;10.10;100.00
13367;BME280;6752;52.612;13.630;2023-10-09T00:17:55;101592.56;;;9.95;100.00
13367;BME280;6752;52.612;13.630;2023-10-09T00:22:57;101590.02;;;10.04;100.00
13367;BME280;6752;52.612;13.630;2023-10-09T00:28:00;101557.69;;;10.08;100.00
13367;BME280;6752;52.612;13.630;2023-10-09T00:33:02;101566.44;;;10.22;100.00
13367;BME280;6752;52.612;13.630;2023-10-09T00:38:07;101550.08;;;10.14;100.00
13367;BME280;6752;52.612;13.630;2023-10-09T00:43:22;101539.87;;;9.84;100.00
13367;BME280;6752;52.612;13.630;2023-10-09T00:48:30;101521.66;;;9.96;100.00
13367;BME280;6752;52.612;13.630;2023-10-09T00:53:32;101522.89;;;10.07;100.00
13367;BME280;6752;52.612;13.630;2023-10-09T00:58:35;101517.00;;;10.04;100.00
13367;BME280;6752;52.612;13.630;2023-10-09T01:03:37;101501.30;;;9.60;100.00
13367;BME280;6752;52.612;13.630;2023-10-09T01:08:39;101501.41;;;9.48;100.00
13367;BME280;6752;52.612;13.630;2023-10-09T01:13:42;101491.80;;;9.70;100.00
13367;BME280;6752;52.612;13.630;2023-10-09T01:18:53;101471.50;;;9.73;100.00
13367;BME280;6752;52.612;13.630;2023-10-09T01:23:55;101466.97;;;9.94;100.00
13367;BME280;6752;52.612;13.630;2023-10-09T01:29:06;101445.11;;;9.63;100.00
13367;BME280;6752;52.612;13.630;2023-10-09T01:34:08;101428.90;;;9.65;100.00
13367;BME280;6752;52.612;13.630;2023-10-09T01:39:11;101423.89;;;9.44;100.00
13367;BME280;6752;52.612;13.630;2023-10-09T01:44:26;101407.80;;;9.46;100.00
13367;BME280;6752;52.612;13.630;2023-10-09T01:49:27;101376.47;;;9.29;100.00
13367;BME280;6752;52.612;13.630;2023-10-09T01:54:33;101363.64;;;9.33;100.00
13367;BME280;6752;52.612;13.630;2023-10-09T01:59:35;101364.34;;;9.45;100.00
13367;BME280;6752;52.612;13.630;2023-10-09T02:04:40;101362.45;;;9.42;100.00
13367;BME280;6752;52.612;13.630;2023-10-09T02:09:43;101360.47;;;9.44;100.00
13367;BME280;6752;52.612;13.630;2023-10-09T02:14:45;101332.63;;;9.45;100.00
13367;BME280;6752;52.612;13.630;2023-10-09T02:19:47;101332.95;;;9.46;100.00
13367;BME280;6752;52.612;13.630;2023-10-09T02:24:52;101328.75;;;9.54;100.00
13367;BME280;6752;52.612;13.630;2023-10-09T02:30:00;101331.28;;;9.45;100.00
13367;BME280;6752;52.612;13.630;2023-10-09T02:35:03;101326.03;;;9.54;100.00
13367;BME280;6752;52.612;13.630;2023-10-09T02:40:05;101315.74;;;9.49;100.00
13367;BME280;6752;52.612;13.630;2023-10-09T02:45:08;101317.46;;;9.57;100.00
13367;BME280;6752;52.612;13.630;2023-10-09T02:50:10;101314.99;;;9.65;100.00
13367;BME280;6752;52.612;13.630;2023-10-09T02:55:13;101313.27;;;9.58;100.00
13367;BME280;6752;52.612;13.630;2023-10-09T03:00:17;101298.38;;;9.40;100.00
13367;BME280;6752;52.612;13.630;2023-10-09T03:05:23;101303.04;;;9.32;100.00
13367;BME280;6752;52.612;13.630;2023-10-09T03:10:26;101299.41;;;9.35;100.00
13367;BME280;6752;52.612;13.630;2023-10-09T03:15:28;101289.31;;;9.29;100.00
13367;BME280;6752;52.612;13.630;2023-10-09T03:20:31;101266.83;;;9.31;100.00
13367;BME280;6752;52.612;13.630;2023-10-09T03:25:33;101258.41;;;9.23;100.00
13367;BME280;6752;52.612;13.630;2023-10-09T03:30:35;101245.67;;;9.27;100.00
13367;BME280;6752;52.612;13.630;2023-10-09T03:35:37;101236.74;;;9.39;100.00
13367;BME280;6752;52.612;13.630;2023-10-09T03:40:43;101219.39;;;9.23;100.00
13367;BME280;6752;52.612;13.630;2023-10-09T03:45:45;101198.28;;;9.29;100.00
13367;BME280;6752;52.612;13.630;2023-10-09T03:50:47;101181.06;;;9.39;100.00
13367;BME280;6752;52.612;13.630;2023-10-09T03:55:50;101176.16;;;9.42;100.00
13367;BME280;6752;52.612;13.630;2023-10-09T04:00:52;101188.00;;;9.65;100.00
13367;BME280;6752;52.612;13.630;2023-10-09T04:05:54;101236.44;;;9.73;100.00
13367;BME280;6752;52.612;13.630;2023-10-09T04:10:57;101235.70;;;9.75;100.00
13367;BME280;6752;52.612;13.630;2023-10-09T04:16:05;101215.84;;;9.84;100.00
13367;BME280;6752;52.612;13.630;2023-10-09T04:21:13;101195.33;;;9.65;100.00
13367;BME280;6752;52.612;13.630;2023-10-09T04:26:18;101158.13;;;9.51;100.00
13367;BME280;6752;52.612;13.630;2023-10-09T04:31:20;101157.80;;;9.47;100.00
13367;BME280;6752;52.612;13.630;2023-10-09T04:36:22;101169.01;;;9.51;100.00
13367;BME280;6752;52.612;13.630;2023-10-09T04:41:25;101164.61;;;9.50;100.00
13367;BME280;6752;52.612;13.630;2023-10-09T04:46:31;101172.98;;;9.73;100.00
13367;BME280;6752;52.612;13.630;2023-10-09T04:51:33;101178.24;;;9.84;100.00
13367;BME280;6752;52.612;13.630;2023-10-09T04:56:38;101175.42;;;9.61;100.00
13367;BME280;6752;52.612;13.630;2023-10-09T05:01:40;101168.30;;;9.57;100.00
13367;BME280;6752;52.612;13.630;2023-10-09T05:06:42;101165.46;;;9.54;100.00
13367;BME280;6752;52.612;13.630;2023-10-09T05:11:44;101156.68;;;9.59;100.00
13367;BME280;6752;52.612;13.630;2023-10-09T05:16:54;101146.07;;;9.46;100.00
13367;BME280;6752;52.612;13.630;2023-10-09T05:21:58;101133.67;;;9.68;100.00
13367;BME280;6752;52.612;13.630;2023-10-09T05:27:00;101144.63;;;9.54;100.00
13367;BME280;6752;52.612;13.630;2023-10-09T05:32:15;101145.80;;;9.62;100.00
13367;BME280;6752;52.612;13.630;2023-10-09T05:37:17;101142.88;;;9.63;100.00
13367;BME280;6752;52.612;13.630;2023-10-09T05:42:19;101135.02;;;9.61;100.00
13367;BME280;6752;52.612;13.630;2023-10-09T05:47:22;101120.67;;;9.60;100.00
13367;BME280;6752;52.612;13.630;2023-10-09T05:52:33;101123.62;;;9.65;100.00
13367;BME280;6752;52.612;13.630;2023-10-09T05:57:41;101140.69;;;9.66;100.00
13367;BME280;6752;52.612;13.630;2023-10-09T06:02:44;101139.54;;;9.68;100.00
13367;BME280;6752;52.612;13.630;2023-10-09T06:08:04;101113.78;;;9.67;100.00
13367;BME280;6752;52.612;13.630;2023-10-09T06:13:07;101112.11;;;9.69;100.00
13367;BME280;6752;52.612;13.630;2023-10-09T06:18:09;101123.04;;;9.73;100.00
13367;BME280;6752;52.612;13.630;2023-10-09T06:23:14;101136.25;;;9.82;100.00
13367;BME280;6752;52.612;13.630;2023-10-09T06:28:19;101123.27;;;9.81;100.00
13367;BME280;6752;52.612;13.630;2023-10-09T06:33:21;101098.97;;;9.83;100.00
13367;BME280;6752;52.612;13.630;2023-10-09T06:38:24;101090.17;;;9.84;100.00
13367;BME280;6752;52.612;13.630;2023-10-09T06:43:26;101105.44;;;10.19;100.00
13367;BME280;6752;52.612;13.630;2023-10-09T06:48:28;101113.58;;;10.09;100.00
13367;BME280;6752;52.612;13.630;2023-10-09T06:53:36;101106.24;;;10.00;100.00
13367;BME280;6752;52.612;13.630;2023-10-09T06:59:00;101099.33;;;10.00;100.00
13367;BME280;6752;52.612;13.630;2023-10-09T07:04:02;101099.19;;;10.25;100.00
13367;BME280;6752;52.612;13.630;2023-10-09T07:09:22;101109.08;;;10.12;100.00
13367;BME280;6752;52.612;13.630;2023-10-09T07:14:24;101103.95;;;10.13;100.00
13367;BME280;6752;52.612;13.630;2023-10-09T07:19:32;101095.72;;;10.37;100.00
13367;BME280;6752;52.612;13.630;2023-10-09T07:24:37;101094.48;;;10.50;100.00
13367;BME280;6752;52.612;13.630;2023-10-09T07:29:40;101091.31;;;10.33;100.00
13367;BME280;6752;52.612;13.630;2023-10-09T07:34:51;101103.68;;;10.39;100.00
13367;BME280;6752;52.612;13.630;2023-10-09T07:39:56;101104.42;;;10.53;100.00
13367;BME280;6752;52.612;13.630;2023-10-09T07:45:01;101123.09;;;10.50;100.00
13367;BME280;6752;52.612;13.630;2023-10-09T07:50:03;101120.66;;;10.37;100.00
13367;BME280;6752;52.612;13.630;2023-10-09T07:55:05;101124.22;;;10.38;100.00
13367;BME280;6752;52.612;13.630;2023-10-09T08:00:08;101125.80;;;10.36;100.00
13367;BME280;6752;52.612;13.630;2023-10-09T08:05:10;101131.78;;;10.56;100.00
13367;BME280;6752;52.612;13.630;2023-10-09T08:10:21;101142.06;;;10.50;100.00
13367;BME280;6752;52.612;13.630;2023-10-09T08:15:24;101143.42;;;10.54;100.00
13367;BME280;6752;52.612;13.630;2023-10-09T08:20:29;101149.19;;;10.51;100.00
13367;BME280;6752;52.612;13.630;2023-10-09T08:25:31;101153.70;;;10.71;100.00
13367;BME280;6752;52.612;13.630;2023-10-09T08:30:36;101165.14;;;10.68;100.00
13367;BME280;6752;52.612;13.630;2023-10-09T08:35:56;101160.09;;;10.48;100.00
13367;BME280;6752;52.612;13.630;2023-10-09T08:41:08;101158.73;;;10.55;100.00
13367;BME280;6752;52.612;13.630;2023-10-09T08:46:10;101145.29;;;10.40;100.00
13367;BME280;6752;52.612;13.630;2023-10-09T08:51:12;101149.72;;;10.51;100.00
13367;BME280;6752;52.612;13.630;2023-10-09T08:56:18;101145.00;;;10.42;100.00
13367;BME280;6752;52.612;13.630;2023-10-09T09:01:17;101137.87;;;10.51;100.00
13367;BME280;6752;52.612;13.630;2023-10-09T09:06:22;101132.84;;;10.68;100.00
13367;BME280;6752;52.612;13.630;2023-10-09T09:11:24;101132.73;;;10.72;100.00
13367;BME280;6752;52.612;13.630;2023-10-09T09:16:27;101127.34;;;11.01;100.00
13367;BME280;6752;52.612;13.630;2023-10-09T09:21:29;101129.14;;;10.95;100.00
13367;BME280;6752;52.612;13.630;2023-10-09T09:26:38;101129.68;;;10.91;100.00
13367;BME280;6752;52.612;13.630;2023-10-09T09:31:51;101123.02;;;11.06;100.00
13367;BME280;6752;52.612;13.630;2023-10-09T09:36:57;101125.11;;;11.17;100.00
13367;BME280;6752;52.612;13.630;2023-10-09T09:42:00;101124.81;;;11.13;100.00
13367;BME280;6752;52.612;13.630;2023-10-09T09:47:07;101122.00;;;11.32;100.00
13367;BME280;6752;52.612;13.630;2023-10-09T09:52:10;101129.84;;;11.06;100.00
13367;BME280;6752;52.612;13.630;2023-10-09T09:57:12;101136.80;;;11.34;100.00
13367;BME280;6752;52.612;13.630;2023-10-09T10:02:14;101136.09;;;11.26;100.00
13367;BME280;6752;52.612;13.630;2023-10-09T10:07:17;101143.62;;;11.34;100.00
13367;BME280;6752;52.612;13.630;2023-10-09T10:12:48;101143.59;;;11.47;100.00
13367;BME280;6752;52.612;13.630;2023-10-09T10:17:21;101133.20;;;11.72;100.00
13367;BME280;6752;52.612;13.630;2023-10-09T10:22:24;101124.64;;;11.36;100.00
13367;BME280;6752;52.612;13.630;2023-10-09T10:27:26;101125.92;;;11.60;100.00
13367;BME280;6752;52.612;13.630;2023-10-09T10:32:52;101123.61;;;11.53;100.00
13367;BME280;6752;52.612;13.630;2023-10-09T10:37:37;101118.66;;;11.56;100.00
13367;BME280;6752;52.612;13.630;2023-10-09T10:42:48;101110.36;;;11.57;100.00
13367;BME280;6752;52.612;13.630;2023-10-09T10:47:53;101107.41;;;11.58;100.00
13367;BME280;6752;52.612;13.630;2023-10-09T10:53:08;101103.58;;;11.73;100.00
13367;BME280;6752;52.612;13.630;2023-10-09T10:58:16;101118.46;;;11.77;100.00
13367;BME280;6752;52.612;13.630;2023-10-09T11:03:21;101120.98;;;11.81;100.00
13367;BME280;6752;52.612;13.630;2023-10-09T11:08:32;101115.41;;;11.60;100.00
13367;BME280;6752;52.612;13.630;2023-10-09T11:13:35;101101.67;;;11.99;100.00
13367;BME280;6752;52.612;13.630;2023-10-09T11:18:40;101098.37;;;11.90;100.00
13367;BME280;6752;52.612;13.630;2023-10-09T11:23:43;101084.55;;;11.85;100.00
13367;BME280;6752;52.612;13.630;2023-10-09T11:29:12;101072.71;;;12.10;100.00
13367;BME280;6752;52.612;13.630;2023-10-09T11:34:19;101069.19;;;12.00;100.00
13367;BME280;6752;52.612;13.630;2023-10-09T11:39:25;101068.30;;;12.22;100.00
13367;BME280;6752;52.612;13.630;2023-10-09T11:44:42;101074.48;;;12.23;100.00
13367;BME280;6752;52.612;13.630;2023-10-09T11:49:51;101074.41;;;12.05;100.00
13367;BME280;6752;52.612;13.630;2023-10-09T11:54:50;101070.55;;;12.28;100.00
13367;BME280;6752;52.612;13.630;2023-10-09T11:59:52;101068.61;;;12.23;100.00
13367;BME280;6752;52.612;13.630;2023-10-09T12:04:54;101056.51;;;12.12;100.00
13367;BME280;6752;52.612;13.630;2023-10-09T12:09:57;101065.34;;;12.23;100.00
13367;BME280;6752;52.612;13.630;2023-10-09T12:14:59;101061.63;;;12.52;100.00
13367;BME280;6752;52.612;13.630;2023-10-09T12:20:01;101055.73;;;12.85;100.00
13367;BME280;6752;52.612;13.630;2023-10-09T12:25:04;101062.65;;;12.57;100.00
13367;BME280;6752;52.612;13.630;2023-10-09T12:30:06;101063.70;;;12.44;100.00
13367;BME280;6752;52.612;13.630;2023-10-09T12:35:09;101063.26;;;12.81;100.00
13367;BME280;6752;52.612;13.630;2023-10-09T12:40:11;101063.52;;;12.51;100.00
13367;BME280;6752;52.612;13.630;2023-10-09T12:45:13;101054.94;;;12.91;100.00
13367;BME280;6752;52.612;13.630;2023-10-09T12:50:16;101063.06;;;12.88;100.00
13367;BME280;6752;52.612;13.630;2023-10-09T12:55:18;101061.63;;;12.52;100.00
13367;BME280;6752;52.612;13.630;2023-10-09T13:00:20;101053.23;;;12.25;100.00
13367;BME280;6752;52.612;13.630;2023-10-09T13:05:23;101054.14;;;12.65;100.00
13367;BME280;6752;52.612;13.630;2023-10-09T13:10:28;101062.22;;;12.20;100.00
13367;BME280;6752;52.612;13.630;2023-10-09T13:15:30;101050.04;;;12.53;100.00
13367;BME280;6752;52.612;13.630;2023-10-09T13:20:32;101062.34;;;12.96;100.00
13367;BME280;6752;52.612;13.630;2023-10-09T13:25:35;101059.34;;;12.61;100.00
13367;BME280;6752;52.612;13.630;2023-10-09T13:30:40;101057.83;;;12.53;100.00
13367;BME280;6752;52.612;13.630;2023-10-09T13:35:42;101056.77;;;12.54;100.00
13367;BME280;6752;52.612;13.630;2023-10-09T13:40:45;101057.30;;;12.75;100.00
13367;BME280;6752;52.612;13.630;2023-10-09T13:45:47;101050.11;;;12.89;100.00
13367;BME280;6752;52.612;13.630;2023-10-09T13:50:50;101049.84;;;12.85;100.00
13367;BME280;6752;52.612;13.630;2023-10-09T13:55:52;101074.13;;;12.75;100.00
13367;BME280;6752;52.612;13.630;2023-10-09T14:00:54;101050.07;;;12.93;100.00
13367;BME280;6752;52.612;13.630;2023-10-09T14:05:56;101060.59;;;12.62;100.00
13367;BME280;6752;52.612;13.630;2023-10-09T14:10:59;101065.88;;;12.60;100.00
13367;BME280;6752;52.612;13.630;2023-10-09T14:16:01;101048.62;;;12.47;100.00
13367;BME280;6752;52.612;13.630;2023-10-09T14:21:03;101044.91;;;12.85;100.00
13367;BME280;6752;52.612;13.630;2023-10-09T14:26:08;101040.36;;;12.54;100.00
13367;BME280;6752;52.612;13.630;2023-10-09T14:31:11;101023.16;;;12.62;100.00
13367;BME280;6752;52.612;13.630;2023-10-09T14:36:13;101027.33;;;12.56;100.00
13367;BME280;6752;52.612;13.630;2023-10-09T14:41:15;101038.95;;;12.48;100.00
13367;BME280;6752;52.612;13.630;2023-10-09T14:46:18;101039.14;;;12.62;100.00
13367;BME280;6752;52.612;13.630;2023-10-09T14:51:20;101043.55;;;12.54;100.00
13367;BME280;6752;52.612;13.630;2023-10-09T14:56:23;101034.34;;;12.36;100.00
13367;BME280;6752;52.612;13.630;2023-10-09T15:01:25;101019.45;;;12.28;100.00
13367;BME280;6752;52.612;13.630;2023-10-09T15:06:27;101022.28;;;12.53;100.00
13367;BME280;6752;52.612;13.630;2023-10-09T15:11:30;101033.16;;;12.25;100.00
13367;BME280;6752;52.612;13.630;2023-10-09T15:16:32;101038.47;;;12.08;100.00
13367;BME280;6752;52.612;13.630;2023-10-09T15:21:34;101050.59;;;12.15;100.00
13367;BME280;6752;52.612;13.630;2023-10-09T15:26:37;101040.95;;;12.12;100.00
13367;BME280;6752;52.612;13.630;2023-10-09T15:31:39;101045.55;;;12.15;100.00
13367;BME280;6752;52.612;13.630;2023-10-09T15:36:41;101049.82;;;12.08;100.00
13367;BME280;6752;52.612;13.630;2023-10-09T15:41:44;101055.42;;;12.01;100.00
13367;BME280;6752;52.612;13.630;2023-10-09T15:46:49;101065.62;;;11.99;100.00
13367;BME280;6752;52.612;13.630;2023-10-09T15:51:51;101071.55;;;11.93;100.00
13367;BME280;6752;52.612;13.630;2023-10-09T15:56:54;101065.98;;;11.94;100.00
13367;BME280;6752;52.612;13.630;2023-10-09T16:01:56;101072.73;;;11.91;100.00
13367;BME280;6752;52.612;13.630;2023-10-09T16:06:58;101084.27;;;12.06;100.00
13367;BME280;6752;52.612;13.630;2023-10-09T16:12:00;101067.23;;;11.94;100.00
13367;BME280;6752;52.612;13.630;2023-10-09T16:17:03;101072.14;;;11.98;100.00
13367;BME280;6752;52.612;13.630;2023-10-09T16:22:05;101063.59;;;11.91;100.00
13367;BME280;6752;52.612;13.630;2023-10-09T16:27:08;101047.64;;;11.66;100.00
13367;BME280;6752;52.612;13.630;2023-10-09T16:32:10;101062.12;;;11.66;100.00
13367;BME280;6752;52.612;13.630;2023-10-09T16:37:12;101072.06;;;11.73;100.00
13367;BME280;6752;52.612;13.630;2023-10-09T16:42:15;101073.16;;;11.66;100.00
13367;BME280;6752;52.612;13.630;2023-10-09T16:47:17;101084.58;;;11.49;100.00
13367;BME280;6752;52.612;13.630;2023-10-09T16:52:19;101096.70;;;11.57;100.00
13367;BME280;6752;52.612;13.630;2023-10-09T16:57:22;101073.48;;;11.44;100.00
13367;BME280;6752;52.612;13.630;2023-10-09T17:02:24;101078.52;;;11.44;100.00
13367;BME280;6752;52.612;13.630;2023-10-09T17:07:26;101096.62;;;11.54;100.00
13367;BME280;6752;52.612;13.630;2023-10-09T17:12:29;101114.84;;;11.67;100.00
13367;BME280;6752;52.612;13.630;2023-10-09T17:17:31;101127.47;;;11.58;100.00
13367;BME280;6752;52.612;13.630;2023-10-09T17:22:33;101129.38;;;11.61;100.00
13367;BME280;6752;52.612;13.630;2023-10-09T17:27:36;101129.45;;;11.67;100.00
13367;BME280;6752;52.612;13.630;2023-10-09T17:32:38;101118.27;;;11.52;100.00
13367;BME280;6752;52.612;13.630;2023-10-09T17:37:41;101113.09;;;11.31;100.00
13367;BME280;6752;52.612;13.630;2023-10-09T17:42:43;101109.00;;;11.31;100.00
13367;BME280;6752;52.612;13.630;2023-10-09T17:47:45;101105.15;;;11.23;100.00
13367;BME280;6752;52.612;13.630;2023-10-09T17:52:48;101101.80;;;11.21;100.00
13367;BME280;6752;52.612;13.630;2023-10-09T17:57:50;101090.17;;;11.16;100.00
13367;BME280;6752;52.612;13.630;2023-10-09T18:02:52;101092.08;;;11.13;100.00
13367;BME280;6752;52.612;13.630;2023-10-09T18:07:56;101089.22;;;11.10;100.00
13367;BME280;6752;52.612;13.630;2023-10-09T18:12:57;101089.55;;;11.08;100.00
13367;BME280;6752;52.612;13.630;2023-10-09T18:18:00;101091.42;;;11.17;100.00
13367;BME280;6752;52.612;13.630;2023-10-09T18:23:02;101101.50;;;11.10;100.00
13367;BME280;6752;52.612;13.630;2023-10-09T18:28:04;101099.58;;;11.24;100.00
13367;BME280;6752;52.612;13.630;2023-10-09T18:33:07;101096.98;;;11.10;100.00
13367;BME280;6752;52.612;13.630;2023-10-09T18:38:09;101096.58;;;11.06;100.00
13367;BME280;6752;52.612;13.630;2023-10-09T18:43:11;101098.27;;;11.14;100.00
13367;BME280;6752;52.612;13.630;2023-10-09T18:48:14;101091.75;;;11.08;100.00
13367;BME280;6752;52.612;13.630;2023-10-09T18:53:16;101091.69;;;10.96;100.00
13367;BME280;6752;52.612;13.630;2023-10-09T18:58:18;101100.50;;;10.95;100.00
13367;BME280;6752;52.612;13.630;2023-10-09T19:03:21;101107.60;;;11.05;100.00
13367;BME280;6752;52.612;13.630;2023-10-09T19:08:23;101097.84;;;11.04;100.00
13367;BME280;6752;52.612;13.630;2023-10-09T19:13:26;101097.77;;;10.98;100.00
13367;BME280;6752;52.612;13.630;2023-10-09T19:18:28;101103.70;;;11.11;100.00
13367;BME280;6752;52.612;13.630;2023-10-09T19:23:30;101103.87;;;10.93;100.00
13367;BME280;6752;52.612;13.630;2023-10-09T19:28:33;101100.31;;;10.89;100.00
13367;BME280;6752;52.612;13.630;2023-10-09T19:33:35;101108.69;;;10.85;100.00
13367;BME280;6752;52.612;13.630;2023-10-09T19:38:38;101111.63;;;10.96;100.00
13367;BME280;6752;52.612;13.630;2023-10-09T19:43:40;101119.47;;;11.02;100.00
13367;BME280;6752;52.612;13.630;2023-10-09T19:48:46;101119.77;;;11.06;100.00
13367;BME280;6752;52.612;13.630;2023-10-09T19:53:48;101135.00;;;10.88;100.00
13367;BME280;6752;52.612;13.630;2023-10-09T19:58:51;101141.20;;;10.99;100.00
13367;BME280;6752;52.612;13.630;2023-10-09T20:03:52;101141.84;;;10.91;100.00
13367;BME280;6752;52.612;13.630;2023-10-09T20:08:55;101133.77;;;10.91;100.00
13367;BME280;6752;52.612;13.630;2023-10-09T20:13:57;101131.55;;;10.87;100.00
13367;BME280;6752;52.612;13.630;2023-10-09T20:19:00;101132.19;;;10.82;100.00
13367;BME280;6752;52.612;13.630;2023-10-09T20:24:02;101140.36;;;10.86;100.00
13367;BME280;6752;52.612;13.630;2023-10-09T20:29:04;101149.52;;;10.89;100.00
13367;BME280;6752;52.612;13.630;2023-10-09T20:34:07;101148.44;;;10.86;100.00
13367;BME280;6752;52.612;13.630;2023-10-09T20:39:13;101157.36;;;10.84;100.00
13367;BME280;6752;52.612;13.630;2023-10-09T20:44:11;101160.08;;;10.88;100.00
13367;BME280;6752;52.612;13.630;2023-10-09T20:49:14;101157.69;;;10.89;100.00
13367;BME280;6752;52.612;13.630;2023-10-09T20:54:16;101156.95;;;10.74;100.00
13367;BME280;6752;52.612;13.630;2023-10-09T20:59:19;101154.95;;;10.75;100.00
13367;BME280;6752;52.612;13.630;2023-10-09T21:04:21;101150.55;;;10.81;100.00
13367;BME280;6752;52.612;13.630;2023-10-09T21:09:23;101158.84;;;10.74;100.00
13367;BME280;6752;52.612;13.630;2023-10-09T21:14:26;101161.77;;;10.75;100.00
13367;BME280;6752;52.612;13.630;2023-10-09T21:19:28;101157.36;;;10.81;100.00
13367;BME280;6752;52.612;13.630;2023-10-09T21:24:30;101164.61;;;10.78;100.00
13367;BME280;6752;52.612;13.630;2023-10-09T21:29:33;101167.53;;;10.80;100.00
13367;BME280;6752;52.612;13.630;2023-10-09T21:34:35;101172.35;;;10.84;100.00
13367;BME280;6752;52.612;13.630;2023-10-09T21:39:37;101182.64;;;10.82;100.00
13367;BME280;6752;52.612;13.630;2023-10-09T21:44:40;101185.05;;;10.78;100.00
13367;BME280;6752;52.612;13.630;2023-10-09T21:49:42;101180.23;;;10.77;100.00
13367;BME280;6752;52.612;13.630;2023-10-09T21:54:45;101185.48;;;10.75;100.00
13367;BME280;6752;52.612;13.630;2023-10-09T21:59:47;101186.11;;;10.77;100.00
13367;BME280;6752;52.612;13.630;2023-10-09T22:04:49;101184.00;;;10.82;100.00
13367;BME280;6752;52.612;13.630;2023-10-09T22:09:52;101180.12;;;10.84;100.00
13367;BME280;6752;52.612;13.630;2023-10-09T22:14:54;101180.34;;;10.76;100.00
13367;BME280;6752;52.612;13.630;2023-10-09T22:19:56;101175.19;;;10.84;100.00
13367;BME280;6752;52.612;13.630;2023-10-09T22:24:59;101170.38;;;10.76;100.00
13367;BME280;6752;52.612;13.630;2023-10-09T22:30:01;101170.50;;;10.65;100.00
13367;BME280;6752;52.612;13.630;2023-10-09T22:35:04;101174.23;;;10.64;100.00
13367;BME280;6752;52.612;13.630;2023-10-09T22:40:06;101172.05;;;10.50;100.00
13367;BME280;6752;52.612;13.630;2023-10-09T22:45:08;101168.16;;;10.52;100.00
13367;BME280;6752;52.612;13.630;2023-10-09T22:50:11;101164.28;;;10.57;100.00
13367;BME280;6752;52.612;13.630;2023-10-09T22:55:22;101175.19;;;10.51;100.00
13367;BME280;6752;52.612;13.630;2023-10-09T23:00:24;101169.95;;;10.53;100.00
13367;BME280;6752;52.612;13.630;2023-10-09T23:05:30;101172.26;;;10.52;100.00
13367;BME280;6752;52.612;13.630;2023-10-09T23:10:32;101168.80;;;10.54;100.00
13367;BME280;6752;52.612;13.630;2023-10-09T23:15:34;101164.39;;;10.53;100.00
13367;BME280;6752;52.612;13.630;2023-10-09T23:20:37;101165.86;;;10.52;100.00
13367;BME280;6752;52.612;13.630;2023-10-09T23:25:39;101170.16;;;10.41;100.00
13367;BME280;6752;52.612;13.630;2023-10-09T23:30:41;101173.83;;;10.51;100.00
13367;BME280;6752;52.612;13.630;2023-10-09T23:35:46;101177.50;;;10.47;100.00
13367;BME280;6752;52.612;13.630;2023-10-09T23:40:58;101181.48;;;10.54;100.00
13367;BME280;6752;52.612;13.630;2023-10-09T23:46:01;101183.27;;;10.51;100.00
13367;BME280;6752;52.612;13.630;2023-10-09T23:51:03;101183.89;;;10.60;100.00
13367;BME280;6752;52.612;13.630;2023-10-09T23:56:06;101190.50;;;10.55;100.00
